Time;durP1;ratioP1;P1;durP2;ratioP2;P2;SDS_P1;SDS_P2;PMS_P1;PMS_P2;Temp;Humidity;BMP_temperature;BMP_pressure;BME280_temperature;BME280_humidity;BME280_pressure;Samples;Min_cycle;Max_cycle;Signal;HPM_P1;HPM_P2
2021/04/26 00:01:23;;;;;;;5.10;3.93;;;11.10;48.10;;;;;;6249970;28;20955;-63
2021/04/26 00:04:26;;;;;;;5.27;4.50;;;11.10;48.30;;;;;;6250449;28;20475;-64
2021/04/26 00:07:28;;;;;;;4.67;3.63;;;11.10;48.00;;;;;;6251284;28;20466;-63
2021/04/26 00:10:31;;;;;;;7.10;4.33;;;11.00;47.90;;;;;;6251416;28;20479;-64
2021/04/26 00:13:33;;;;;;;5.40;4.23;;;10.90;48.30;;;;;;6252252;28;20466;-64
2021/04/26 00:16:37;;;;;;;5.07;4.30;;;10.80;48.60;;;;;;6252146;28;20452;-64
2021/04/26 00:19:40;;;;;;;6.00;4.47;;;10.80;49.30;;;;;;6251822;28;20447;-64
2021/04/26 00:22:42;;;;;;;7.00;4.77;;;10.80;49.30;;;;;;6252212;28;20469;-64
2021/04/26 00:25:45;;;;;;;4.90;4.30;;;10.70;49.30;;;;;;6251773;28;20455;-64
2021/04/26 00:28:47;;;;;;;4.27;3.80;;;10.70;49.40;;;;;;6252273;28;20596;-64
2021/04/26 00:31:49;;;;;;;5.57;5.07;;;10.60;49.20;;;;;;6251320;28;20814;-64
2021/04/26 00:34:52;;;;;;;4.77;4.37;;;10.50;49.30;;;;;;6251581;28;20875;-64
2021/04/26 00:37:55;;;;;;;6.23;5.63;;;10.40;49.50;;;;;;6251032;28;20467;-63
2021/04/26 00:40:57;;;;;;;5.53;4.23;;;10.40;49.50;;;;;;6243065;28;20463;-64
2021/04/26 00:43:59;;;;;;;6.27;4.87;;;10.30;49.60;;;;;;6251179;28;20470;-64
2021/04/26 00:47:02;;;;;;;5.80;4.60;;;10.30;50.00;;;;;;6251308;28;20459;-64
2021/04/26 00:50:07;;;;;;;5.03;4.17;;;10.20;49.80;;;;;;6251121;28;20466;-66
2021/04/26 00:53:10;;;;;;;4.67;4.27;;;10.10;50.00;;;;;;6250359;28;20486;-64
2021/04/26 00:56:12;;;;;;;6.70;4.80;;;10.10;50.30;;;;;;6251450;28;20471;-63
2021/04/26 00:59:15;;;;;;;6.83;5.10;;;10.10;50.80;;;;;;6251013;28;20471;-63
2021/04/26 01:02:17;;;;;;;5.60;4.70;;;10.00;50.60;;;;;;6250628;28;20966;-64
2021/04/26 01:05:22;;;;;;;5.07;4.57;;;10.00;50.60;;;;;;6250794;28;20482;-64
2021/04/26 01:08:24;;;;;;;5.63;5.00;;;10.00;51.20;;;;;;6250903;28;20963;-64
2021/04/26 01:11:34;;;;;;;5.90;4.87;;;9.90;51.50;;;;;;6250423;28;20486;-64
2021/04/26 01:14:42;;;;;;;4.80;4.13;;;9.80;51.80;;;;;;6250612;28;20979;-64
2021/04/26 01:17:48;;;;;;;7.13;3.90;;;9.70;52.00;;;;;;6250763;28;20482;-64
2021/04/26 01:21:26;;;;;;;5.67;4.37;;;9.70;52.20;;;;;;6250565;28;20471;-64
2021/04/26 01:24:41;;;;;;;4.20;3.80;;;9.50;52.00;;;;;;6250214;28;20490;-64
2021/04/26 01:28:12;;;;;;;7.13;4.70;;;9.50;52.20;;;;;;6250466;28;20848;-64
2021/04/26 01:31:17;;;;;;;5.30;3.53;;;9.50;52.90;;;;;;6250733;28;20485;-64
2021/04/26 01:34:21;;;;;;;4.43;4.03;;;9.40;52.40;;;;;;6250063;28;20577;-64
2021/04/26 01:37:25;;;;;;;6.67;4.80;;;9.40;52.50;;;;;;6250447;28;20475;-64
2021/04/26 01:40:27;;;;;;;5.60;4.80;;;9.40;52.50;;;;;;6249720;28;20451;-64
2021/04/26 01:43:30;;;;;;;4.63;3.80;;;9.40;52.40;;;;;;6245813;28;20469;-63
2021/04/26 01:46:33;;;;;;;5.73;4.50;;;9.30;52.90;;;;;;6249837;28;20474;-64
2021/04/26 01:49:38;;;;;;;3.60;3.30;;;9.30;53.10;;;;;;6249811;28;20857;-63
2021/04/26 01:52:41;;;;;;;4.53;3.90;;;9.20;52.90;;;;;;6250031;28;20482;-64
2021/04/26 01:55:44;;;;;;;3.87;3.17;;;9.20;52.80;;;;;;6249805;28;20466;-64
2021/04/26 01:58:52;;;;;;;6.33;3.70;;;9.20;53.00;;;;;;6249928;28;20447;-64
2021/04/26 02:01:56;;;;;;;5.63;4.63;;;9.10;52.90;;;;;;6248721;28;20466;-63
2021/04/26 02:05:00;;;;;;;5.27;3.90;;;9.10;53.10;;;;;;6249859;28;20544;-63
2021/04/26 02:08:05;;;;;;;6.23;3.80;;;9.10;52.90;;;;;;6249892;28;20467;-63
2021/04/26 02:11:11;;;;;;;4.03;3.73;;;9.00;52.70;;;;;;6249961;28;20482;-63
2021/04/26 02:14:14;;;;;;;5.90;3.87;;;8.90;52.70;;;;;;6249693;28;20474;-63
2021/04/26 02:17:17;;;;;;;5.17;3.77;;;8.90;53.10;;;;;;6249881;28;20482;-63
2021/04/26 02:20:20;;;;;;;5.30;4.03;;;8.90;52.60;;;;;;6249307;28;20973;-64
2021/04/26 02:23:24;;;;;;;4.07;3.50;;;8.90;52.50;;;;;;6249651;28;20475;-64
2021/04/26 02:26:26;;;;;;;5.57;3.70;;;8.70;52.20;;;;;;6249628;28;20467;-64
2021/04/26 02:29:29;;;;;;;4.03;3.50;;;8.60;52.50;;;;;;6249441;28;20497;-63
2021/04/26 02:32:38;;;;;;;4.93;3.67;;;8.50;53.00;;;;;;6249238;28;20478;-64
2021/04/26 02:35:47;;;;;;;4.93;3.73;;;8.50;52.90;;;;;;6248679;28;20487;-64
2021/04/26 02:38:52;;;;;;;4.93;3.90;;;8.40;53.50;;;;;;6249465;28;20471;-64
2021/04/26 02:41:55;;;;;;;6.20;4.00;;;8.40;53.70;;;;;;6249729;28;20475;-63
2021/04/26 02:44:58;;;;;;;5.30;3.43;;;8.40;53.30;;;;;;6249252;28;20564;-64
2021/04/26 02:48:01;;;;;;;4.20;3.80;;;8.30;53.60;;;;;;6248397;28;20482;-63
2021/04/26 02:51:06;;;;;;;5.27;3.60;;;8.20;53.90;;;;;;6240525;28;20486;-63
2021/04/26 02:54:10;;;;;;;5.23;3.33;;;8.20;54.00;;;;;;6247948;28;20493;-63
2021/04/26 02:57:13;;;;;;;3.97;3.67;;;8.20;54.00;;;;;;6249048;28;20482;-63
2021/04/26 03:00:19;;;;;;;3.90;3.53;;;8.20;53.90;;;;;;6248941;28;20471;-63
2021/04/26 03:03:22;;;;;;;4.40;3.73;;;8.20;54.00;;;;;;6248720;28;20482;-63
2021/04/26 03:06:25;;;;;;;4.33;3.50;;;8.10;54.30;;;;;;6249295;28;20521;-63
2021/04/26 03:09:29;;;;;;;8.57;4.03;;;8.20;55.10;;;;;;6249098;28;20467;-63
2021/04/26 03:12:33;;;;;;;5.00;4.33;;;8.30;54.70;;;;;;6248466;28;20963;-63
2021/04/26 03:15:35;;;;;;;4.47;4.03;;;8.30;54.00;;;;;;6249363;28;20475;-63
2021/04/26 03:18:39;;;;;;;4.97;3.60;;;8.20;54.00;;;;;;6253011;28;20811;-63
2021/04/26 03:21:44;;;;;;;4.70;4.30;;;8.30;54.00;;;;;;6253327;28;20473;-65
2021/04/26 03:24:47;;;;;;;5.63;3.70;;;8.30;54.60;;;;;;6252332;28;21367;-64
2021/04/26 03:27:54;;;;;;;4.43;4.03;;;8.30;54.50;;;;;;6252796;28;21116;-63
2021/04/26 03:30:57;;;;;;;4.10;3.63;;;8.40;55.10;;;;;;6252572;28;20494;-64
2021/04/26 03:33:59;;;;;;;5.70;4.00;;;8.40;55.00;;;;;;6252584;28;20489;-64
2021/04/26 03:37:03;;;;;;;5.10;4.07;;;8.50;55.00;;;;;;6252772;28;20820;-63
2021/04/26 03:40:06;;;;;;;4.37;3.77;;;8.50;55.20;;;;;;6252612;28;20479;-63
2021/04/26 03:43:09;;;;;;;5.40;4.87;;;8.50;55.40;;;;;;6252663;28;20479;-64
2021/04/26 03:46:12;;;;;;;4.43;3.87;;;8.60;55.40;;;;;;6252638;28;20516;-63
2021/04/26 03:49:15;;;;;;;4.47;4.00;;;8.60;55.00;;;;;;6252794;28;20985;-64
2021/04/26 03:52:18;;;;;;;8.27;3.90;;;8.60;54.60;;;;;;6252166;28;20482;-64
2021/04/26 03:55:22;;;;;;;4.83;3.63;;;8.70;54.30;;;;;;6243963;28;20479;-64
2021/04/26 03:58:25;;;;;;;3.77;3.37;;;8.60;54.30;;;;;;6252371;28;20809;-64
2021/04/26 04:01:29;;;;;;;4.57;3.83;;;8.70;54.30;;;;;;6252455;28;20807;-64
2021/04/26 04:04:31;;;;;;;5.00;3.30;;;8.80;54.00;;;;;;6252303;28;20470;-63
2021/04/26 04:07:34;;;;;;;4.60;3.30;;;8.90;53.70;;;;;;6252227;28;20767;-63
2021/04/26 04:10:37;;;;;;;7.83;4.70;;;8.90;53.60;;;;;;6252252;28;20911;-63
2021/04/26 04:13:40;;;;;;;5.37;3.60;;;8.90;53.60;;;;;;6251696;28;20474;-63
2021/04/26 04:16:42;;;;;;;4.73;3.60;;;8.90;53.60;;;;;;6252305;28;20459;-64
2021/04/26 04:19:45;;;;;;;4.63;3.77;;;9.00;54.00;;;;;;6251789;28;20775;-63
2021/04/26 04:22:48;;;;;;;7.00;4.50;;;9.00;54.00;;;;;;6252018;28;20792;-63
2021/04/26 04:25:50;;;;;;;3.77;3.33;;;9.10;53.80;;;;;;6251421;28;21323;-63
2021/04/26 04:28:52;;;;;;;5.30;4.83;;;9.20;53.60;;;;;;6252303;28;20464;-63
2021/04/26 04:31:59;;;;;;;7.63;5.17;;;9.20;53.30;;;;;;6251602;28;20527;-63
2021/04/26 04:35:02;;;;;;;5.70;5.00;;;9.30;53.50;;;;;;6252212;28;20471;-64
2021/04/26 04:38:06;;;;;;;6.17;4.60;;;9.20;53.60;;;;;;6251794;28;20797;-63
2021/04/26 04:41:08;;;;;;;4.27;3.87;;;9.30;53.60;;;;;;6251970;28;20467;-65
2021/04/26 04:44:10;;;;;;;6.13;4.73;;;9.30;53.40;;;;;;6251800;28;20467;-63
2021/04/26 04:47:12;;;;;;;4.53;4.07;;;9.40;53.70;;;;;;6251589;28;20471;-63
2021/04/26 04:50:15;;;;;;;4.33;3.93;;;9.40;53.60;;;;;;6250903;28;20570;-64
2021/04/26 04:53:18;;;;;;;7.07;4.30;;;9.50;53.50;;;;;;6247925;28;20471;-64
2021/04/26 04:56:20;;;;;;;5.50;4.53;;;9.60;53.30;;;;;;6242264;28;20790;-63
2021/04/26 04:59:23;;;;;;;5.30;4.20;;;9.60;53.00;;;;;;6249930;28;21122;-63
2021/04/26 05:02:25;;;;;;;10.87;4.77;;;9.70;52.90;;;;;;6249519;28;20478;-63
2021/04/26 05:05:27;;;;;;;4.43;3.73;;;9.90;52.70;;;;;;6249845;28;20565;-63
2021/04/26 05:08:30;;;;;;;6.03;3.87;;;10.00;51.40;;;;;;6250051;28;20471;-63
2021/04/26 05:11:32;;;;;;;5.83;3.90;;;10.10;50.90;;;;;;6249574;28;20479;-65
2021/04/26 05:14:34;;;;;;;4.83;4.37;;;10.10;50.60;;;;;;6250087;28;20482;-63
2021/04/26 05:17:37;;;;;;;8.03;4.30;;;10.20;50.70;;;;;;6248697;28;20963;-63
2021/04/26 05:20:41;;;;;;;5.70;4.40;;;10.10;50.80;;;;;;6248538;28;21083;-63
2021/04/26 05:23:44;;;;;;;9.20;4.93;;;10.20;51.30;;;;;;6248530;28;20475;-63
2021/04/26 05:26:46;;;;;;;8.33;5.33;;;10.20;51.20;;;;;;6248180;28;20475;-63
2021/04/26 05:29:48;;;;;;;5.43;4.13;;;10.20;50.40;;;;;;6248715;28;20478;-64
2021/04/26 05:32:50;;;;;;;5.23;4.50;;;10.20;50.30;;;;;;6250102;28;20490;-64
2021/04/26 05:35:53;;;;;;;7.53;5.23;;;10.20;51.10;;;;;;6250468;28;20467;-64
2021/04/26 05:38:55;;;;;;;7.03;4.73;;;10.20;50.90;;;;;;6250012;28;20477;-63
2021/04/26 05:41:58;;;;;;;5.47;4.43;;;10.20;51.00;;;;;;6250238;28;20791;-63
2021/04/26 05:45:00;;;;;;;12.03;5.00;;;10.20;51.10;;;;;;6250056;28;20475;-63
2021/04/26 05:48:02;;;;;;;9.67;4.57;;;10.10;51.10;;;;;;6250294;28;20557;-63
2021/04/26 05:51:08;;;;;;;6.50;4.40;;;10.20;51.10;;;;;;6250234;28;20486;-63
2021/04/26 05:54:11;;;;;;;6.67;4.20;;;10.30;50.70;;;;;;6249728;28;20475;-62
2021/04/26 05:57:13;;;;;;;5.20;4.70;;;10.30;51.10;;;;;;6250063;28;20467;-63
2021/04/26 06:00:16;;;;;;;7.07;4.73;;;10.40;50.10;;;;;;6245321;28;20471;-63
2021/04/26 06:03:19;;;;;;;4.87;4.37;;;10.40;50.20;;;;;;6249707;28;20478;-63
2021/04/26 06:06:21;;;;;;;5.87;4.20;;;10.40;50.20;;;;;;6249658;28;20478;-63
2021/04/26 06:09:24;;;;;;;5.10;4.37;;;10.40;50.00;;;;;;6249903;28;20473;-63
2021/04/26 06:12:27;;;;;;;3.97;3.60;;;10.30;48.50;;;;;;6249418;28;20479;-63
2021/04/26 06:15:29;;;;;;;5.63;3.93;;;10.20;47.70;;;;;;6249198;28;20545;-63
2021/04/26 06:18:37;;;;;;;5.63;4.80;;;10.10;48.50;;;;;;6249478;28;20554;-63
2021/04/26 06:21:39;;;;;;;15.47;4.87;;;9.80;52.30;;;;;;6250029;28;20467;-63
2021/04/26 06:24:42;;;;;;;5.83;5.10;;;9.50;54.00;;;;;;6249290;28;20489;-63
2021/04/26 06:27:44;;;;;;;6.30;5.17;;;9.30;55.60;;;;;;6249663;28;20475;-63
2021/04/26 06:30:47;;;;;;;6.23;5.30;;;8.90;57.30;;;;;;6249255;28;20971;-63
2021/04/26 06:33:52;;;;;;;7.93;4.97;;;8.60;59.20;;;;;;6249070;28;20483;-63
2021/04/26 06:36:55;;;;;;;7.83;5.40;;;8.40;61.10;;;;;;6249732;28;20486;-63
2021/04/26 06:39:58;;;;;;;5.20;4.50;;;8.40;62.30;;;;;;6248888;28;20485;-63
2021/04/26 06:43:00;;;;;;;6.53;4.83;;;8.40;62.60;;;;;;6248912;28;20471;-64
2021/04/26 06:46:03;;;;;;;8.50;4.47;;;8.40;62.50;;;;;;6248365;28;20497;-63
2021/04/26 06:49:05;;;;;;;6.90;5.07;;;8.20;63.10;;;;;;6249023;28;20986;-62
2021/04/26 06:52:07;;;;;;;8.47;5.50;;;8.30;63.20;;;;;;6250435;28;20963;-63
2021/04/26 06:55:10;;;;;;;6.90;4.83;;;8.40;62.90;;;;;;6254166;28;20548;-63
2021/04/26 06:58:13;;;;;;;6.77;4.90;;;8.60;63.30;;;;;;6253910;28;20475;-63
2021/04/26 07:01:15;;;;;;;8.50;5.60;;;8.60;62.70;;;;;;6253653;28;20482;-63
2021/04/26 07:04:21;;;;;;;5.47;4.97;;;8.60;62.20;;;;;;6253101;28;20823;-63
2021/04/26 07:07:24;;;;;;;5.90;4.50;;;8.80;62.00;;;;;;6253326;28;20474;-63
2021/04/26 07:10:27;;;;;;;5.10;4.20;;;9.00;61.80;;;;;;6250845;28;20475;-63
2021/04/26 07:13:29;;;;;;;5.33;4.83;;;9.10;61.00;;;;;;6252508;28;20825;-63
2021/04/26 07:16:32;;;;;;;7.70;4.43;;;9.10;60.70;;;;;;6253437;28;20431;-63
2021/04/26 07:19:34;;;;;;;8.50;4.73;;;9.20;62.10;;;;;;6252922;28;20470;-63
2021/04/26 07:22:36;;;;;;;8.27;5.07;;;9.50;61.10;;;;;;6252953;28;20760;-63
2021/04/26 07:25:40;;;;;;;7.50;5.63;;;9.70;60.00;;;;;;6252611;28;20431;-64
2021/04/26 07:28:42;;;;;;;6.53;5.77;;;9.60;59.70;;;;;;6253272;28;20488;-63
2021/04/26 07:31:45;;;;;;;6.60;4.97;;;9.80;59.40;;;;;;6252744;28;20826;-63
2021/04/26 07:34:47;;;;;;;7.03;4.53;;;9.80;58.00;;;;;;6253482;28;20466;-64
2021/04/26 07:37:49;;;;;;;7.00;4.97;;;10.10;56.80;;;;;;6252977;28;20957;-63
2021/04/26 07:40:52;;;;;;;6.67;4.93;;;10.20;56.30;;;;;;6252573;28;20465;-64
2021/04/26 07:43:54;;;;;;;8.33;4.93;;;10.50;56.40;;;;;;6252478;28;20798;-63
2021/04/26 07:46:58;;;;;;;6.57;5.13;;;10.70;55.60;;;;;;6252467;28;20462;-64
2021/04/26 07:50:00;;;;;;;5.00;4.20;;;10.90;55.20;;;;;;6252744;28;20477;-64
2021/04/26 07:53:08;;;;;;;5.10;4.53;;;11.00;54.50;;;;;;6249569;28;20478;-63
2021/04/26 07:56:12;;;;;;;5.27;4.60;;;11.00;54.00;;;;;;6252383;28;20474;-64
2021/04/26 07:59:14;;;;;;;7.33;5.10;;;11.20;54.10;;;;;;6249334;28;21195;-66
2021/04/26 08:02:16;;;;;;;5.00;4.50;;;11.20;53.80;;;;;;6237104;28;20482;-68
2021/04/26 08:05:21;;;;;;;7.30;5.03;;;11.30;54.00;;;;;;6245480;28;20479;-66
2021/04/26 08:08:23;;;;;;;4.80;4.30;;;10.90;54.40;;;;;;6235547;28;20472;-66
2021/04/26 08:11:26;;;;;;;5.67;4.90;;;10.80;54.30;;;;;;6227894;28;20491;-65
2021/04/26 08:14:28;;;;;;;7.97;5.17;;;11.00;54.10;;;;;;6227411;28;20799;-65
2021/04/26 08:17:31;;;;;;;7.33;5.47;;;11.20;53.60;;;;;;6242778;28;20477;-62
2021/04/26 08:20:35;;;;;;;9.33;5.53;;;11.30;53.10;;;;;;6259915;28;20561;-66
2021/04/26 08:23:39;;;;;;;5.53;4.90;;;11.30;53.10;;;;;;6266135;28;20467;-65
2021/04/26 08:26:43;;;;;;;10.57;5.47;;;11.20;53.20;;;;;;6251427;28;20568;-66
2021/04/26 08:29:45;;;;;;;6.87;4.70;;;11.40;53.30;;;;;;6251607;28;20546;-67
2021/04/26 08:32:47;;;;;;;8.27;5.30;;;11.50;52.80;;;;;;6250015;28;20545;-67
2021/04/26 08:35:50;;;;;;;7.53;5.37;;;11.90;52.40;;;;;;6250823;28;20471;-66
2021/04/26 08:38:52;;;;;;;7.30;4.23;;;12.20;51.30;;;;;;6251443;28;20475;-65
2021/04/26 08:41:55;;;;;;;8.13;4.23;;;12.50;50.70;;;;;;6251691;28;20467;-65
2021/04/26 08:44:57;;;;;;;7.20;4.70;;;12.40;50.60;;;;;;6250011;28;20478;-65
2021/04/26 08:48:02;;;;;;;4.93;4.47;;;12.60;49.80;;;;;;6259017;28;20484;-67
2021/04/26 08:51:05;;;;;;;6.23;5.20;;;12.50;49.40;;;;;;6265455;28;20499;-64
2021/04/26 08:54:20;;;;;;;5.13;4.40;;;12.40;48.70;;;;;;6251145;28;20471;-66
2021/04/26 08:57:23;;;;;;;6.13;4.63;;;12.30;49.10;;;;;;6251284;28;20482;-65
2021/04/26 09:00:26;;;;;;;5.57;4.80;;;12.50;49.30;;;;;;6252840;28;20815;-66
2021/04/26 09:03:32;;;;;;;5.50;4.97;;;12.50;49.10;;;;;;6257471;28;20479;-66
2021/04/26 09:06:56;;;;;;;7.27;5.43;;;12.70;48.90;;;;;;6265584;28;20482;-65
2021/04/26 09:09:58;;;;;;;5.10;4.40;;;12.60;48.80;;;;;;6256582;28;20542;-62
2021/04/26 09:13:26;;;;;;;4.73;4.23;;;12.30;48.30;;;;;;6270401;28;20493;-64
2021/04/26 09:16:31;;;;;;;6.67;5.40;;;12.10;49.40;;;;;;6239282;28;20501;-63
2021/04/26 09:19:33;;;;;;;5.33;4.33;;;11.80;49.40;;;;;;6250314;28;20934;-62
2021/04/26 09:22:41;;;;;;;7.30;4.83;;;11.90;49.70;;;;;;6256222;28;20767;-61
2021/04/26 09:25:44;;;;;;;6.63;5.00;;;12.20;49.10;;;;;;6275080;28;20886;-61
2021/04/26 09:29:07;;;;;;;5.20;4.40;;;12.30;49.10;;;;;;6275212;28;20438;-63
2021/04/26 09:32:11;;;;;;;6.27;5.37;;;12.00;49.00;;;;;;6275007;28;20950;-61
2021/04/26 09:35:26;;;;;;;6.07;4.90;;;12.10;49.00;;;;;;6253305;28;20979;-62
2021/04/26 09:38:30;;;;;;;7.23;5.17;;;12.20;49.10;;;;;;6248621;28;20463;-62
2021/04/26 09:41:33;;;;;;;6.43;5.30;;;11.80;49.20;;;;;;6249297;28;20471;-61
2021/04/26 09:44:36;;;;;;;4.30;3.90;;;11.30;49.40;;;;;;6249335;28;20928;-60
2021/04/26 09:47:38;;;;;;;5.33;4.80;;;11.10;50.10;;;;;;6249199;28;20920;-61
2021/04/26 09:50:52;;;;;;;6.70;5.30;;;11.10;51.10;;;;;;6249639;28;20990;-60
2021/04/26 09:53:58;;;;;;;5.33;4.83;;;11.10;50.70;;;;;;6249334;28;20802;-62
2021/04/26 09:57:00;;;;;;;8.40;4.50;;;11.10;51.00;;;;;;6249945;28;20520;-61
2021/04/26 10:00:05;;;;;;;5.03;4.27;;;11.00;51.40;;;;;;6249249;28;20471;-61
2021/04/26 10:03:08;;;;;;;11.90;6.93;;;10.80;52.30;;;;;;6249348;28;20494;-61
2021/04/26 10:06:13;;;;;;;6.23;5.30;;;10.90;52.90;;;;;;6249356;28;20502;-62
2021/04/26 10:09:16;;;;;;;6.23;4.97;;;10.70;54.00;;;;;;6266973;28;20836;-61
2021/04/26 10:12:18;;;;;;;6.30;5.70;;;10.70;54.60;;;;;;6273892;28;20829;-61
2021/04/26 10:15:26;;;;;;;5.90;5.33;;;9.80;57.90;;;;;;6273835;28;20478;-61
2021/04/26 10:18:34;;;;;;;8.67;4.80;;;9.90;58.90;;;;;;6264737;28;20490;-63
2021/04/26 10:21:37;;;;;;;5.63;4.57;;;10.00;58.20;;;;;;6273836;28;20615;-60
2021/04/26 10:24:50;;;;;;;6.43;5.60;;;10.10;58.70;;;;;;6273232;28;20488;-61
2021/04/26 10:27:54;;;;;;;7.13;5.67;;;9.90;59.50;;;;;;6268807;28;20467;-61
2021/04/26 10:31:04;;;;;;;6.23;5.60;;;9.40;62.20;;;;;;6247134;28;20468;-60
2021/04/26 10:34:08;;;;;;;6.43;5.57;;;9.40;65.10;;;;;;6247807;28;20901;-61
2021/04/26 10:37:20;;;;;;;7.47;6.30;;;9.70;65.50;;;;;;6248205;28;20467;-61
2021/04/26 10:40:24;;;;;;;6.30;5.70;;;9.70;65.60;;;;;;6248649;28;20807;-62
2021/04/26 10:43:28;;;;;;;7.80;5.30;;;9.60;65.30;;;;;;6247367;28;20810;-63
2021/04/26 10:46:31;;;;;;;6.70;6.10;;;9.70;66.40;;;;;;6246148;28;21002;-67
2021/04/26 10:49:34;;;;;;;6.97;6.27;;;9.80;66.10;;;;;;6246474;28;20596;-62
2021/04/26 10:52:38;;;;;;;6.80;5.70;;;9.90;69.40;;;;;;6246668;28;20589;-62
2021/04/26 10:55:49;;;;;;;10.00;6.27;;;9.90;70.20;;;;;;6246388;28;20909;-62
2021/04/26 10:59:24;;;;;;;7.67;5.90;;;9.90;70.90;;;;;;6246116;28;20467;-61
2021/04/26 11:02:33;;;;;;;7.50;5.50;;;10.00;71.00;;;;;;6247967;28;20475;-61
2021/04/26 11:05:37;;;;;;;6.43;5.83;;;10.10;71.80;;;;;;6248256;28;20471;-63
2021/04/26 11:08:42;;;;;;;7.83;6.47;;;10.10;70.60;;;;;;6247657;28;20489;-61
2021/04/26 11:11:54;;;;;;;7.43;6.73;;;10.00;71.90;;;;;;6248315;28;20581;-66
2021/04/26 11:15:12;;;;;;;7.30;6.53;;;9.90;75.50;;;;;;6263349;28;20478;-64
2021/04/26 11:18:16;;;;;;;6.80;5.73;;;9.70;75.30;;;;;;6272978;28;20547;-64
2021/04/26 11:21:50;;;;;;;7.20;6.10;;;9.40;75.80;;;;;;6272741;28;20480;-65
2021/04/26 11:25:00;;;;;;;7.53;5.87;;;9.30;76.60;;;;;;6252966;28;20471;-69
2021/04/26 11:28:03;;;;;;;6.50;5.90;;;9.40;77.60;;;;;;6247855;28;20475;-62
2021/04/26 11:31:06;;;;;;;6.43;5.50;;;9.20;76.10;;;;;;6248232;28;20495;-66
2021/04/26 11:34:09;;;;;;;7.27;6.47;;;9.10;77.60;;;;;;6247454;28;20815;-66
2021/04/26 11:37:12;;;;;;;7.03;6.43;;;9.10;79.20;;;;;;6248092;28;20479;-63
2021/04/26 11:40:16;;;;;;;6.40;5.90;;;9.10;81.70;;;;;;6251167;28;20477;-65
2021/04/26 11:43:18;;;;;;;8.60;6.10;;;9.20;84.80;;;;;;6249925;28;20471;-62
2021/04/26 11:46:28;;;;;;;7.83;6.47;;;9.30;84.30;;;;;;6248848;28;20830;-66
2021/04/26 11:49:34;;;;;;;6.67;5.80;;;9.40;84.20;;;;;;6249216;28;20467;-65
2021/04/26 11:52:37;;;;;;;7.87;6.97;;;9.50;83.60;;;;;;6247743;28;20787;-65
2021/04/26 11:55:40;;;;;;;7.23;6.60;;;9.60;87.10;;;;;;6248658;28;20449;-62
2021/04/26 11:58:42;;;;;;;7.03;6.43;;;9.60;86.80;;;;;;6249492;28;20459;-63
2021/04/26 12:01:51;;;;;;;8.57;7.60;;;9.70;88.30;;;;;;6249469;28;20470;-67
2021/04/26 12:04:55;;;;;;;9.63;6.53;;;9.80;90.00;;;;;;6249993;28;20467;-63
2021/04/26 12:07:58;;;;;;;7.23;6.57;;;9.90;89.50;;;;;;6249304;28;20467;-63
2021/04/26 12:11:13;;;;;;;7.83;6.60;;;9.90;88.60;;;;;;6252037;28;20462;-60
2021/04/26 12:14:16;;;;;;;8.10;7.27;;;10.00;86.90;;;;;;6261641;28;20817;-64
2021/04/26 12:17:20;;;;;;;11.40;7.20;;;10.20;87.90;;;;;;6276684;28;20807;-66
2021/04/26 12:20:25;;;;;;;8.70;7.97;;;10.40;87.10;;;;;;6276432;28;21055;-64
2021/04/26 12:23:36;;;;;;;8.13;7.33;;;10.60;87.10;;;;;;6276435;28;21044;-61
2021/04/26 12:26:38;;;;;;;7.67;6.87;;;10.90;86.70;;;;;;6276996;28;20545;-68
2021/04/26 12:29:42;;;;;;;8.20;7.10;;;11.10;83.70;;;;;;6277016;28;20559;-66
2021/04/26 12:32:45;;;;;;;6.80;6.27;;;11.30;82.00;;;;;;6279065;28;20486;-63
2021/04/26 12:35:49;;;;;;;8.97;8.27;;;11.50;82.30;;;;;;6254979;28;20963;-65
2021/04/26 12:38:53;;;;;;;8.03;7.20;;;11.70;80.30;;;;;;6251025;28;20971;-67
2021/04/26 12:42:07;;;;;;;9.90;6.50;;;12.10;82.20;;;;;;6251707;28;20470;-62
2021/04/26 12:45:13;;;;;;;7.40;6.77;;;12.40;81.90;;;;;;6251212;28;20478;-68
2021/04/26 12:48:17;;;;;;;6.07;5.47;;;12.80;81.60;;;;;;6251408;28;20478;-63
2021/04/26 12:51:31;;;;;;;8.07;7.37;;;13.20;80.60;;;;;;6250309;28;20481;-67
2021/04/26 12:54:34;;;;;;;7.17;6.57;;;13.50;77.30;;;;;;6251277;28;20822;-63
2021/04/26 12:57:36;;;;;;;7.73;6.40;;;13.60;77.80;;;;;;6251074;28;20500;-64
2021/04/26 13:00:42;;;;;;;7.37;6.37;;;13.80;78.50;;;;;;6251292;28;20622;-63
2021/04/26 13:03:54;;;;;;;7.40;6.70;;;13.80;77.20;;;;;;6249930;28;20554;-63
2021/04/26 13:06:58;;;;;;;7.07;6.37;;;13.90;73.60;;;;;;6237885;28;20559;-65
2021/04/26 13:10:03;;;;;;;6.00;5.50;;;14.10;71.70;;;;;;6249450;28;20471;-68
2021/04/26 13:13:05;;;;;;;7.40;6.70;;;14.10;70.10;;;;;;6250802;28;21009;-69
2021/04/26 13:16:17;;;;;;;7.17;6.47;;;14.00;70.20;;;;;;6275318;28;20484;-67
2021/04/26 13:19:26;;;;;;;6.70;6.10;;;14.00;69.80;;;;;;6275392;28;20557;-67
2021/04/26 13:22:31;;;;;;;6.40;5.80;;;14.00;68.00;;;;;;6275118;28;20470;-62
2021/04/26 13:25:33;;;;;;;7.60;6.37;;;13.80;68.10;;;;;;6244816;28;20801;-58
2021/04/26 13:28:35;;;;;;;8.43;7.73;;;13.70;68.70;;;;;;6250110;28;20514;-59
2021/04/26 13:31:38;;;;;;;7.33;6.40;;;13.70;69.20;;;;;;6248435;28;20459;-58
2021/04/26 13:34:44;;;;;;;7.30;6.60;;;13.70;69.50;;;;;;6250024;28;20516;-59
2021/04/26 13:37:47;;;;;;;6.80;6.30;;;13.80;69.40;;;;;;6249442;28;20984;-60
2021/04/26 13:40:51;;;;;;;7.50;6.20;;;13.70;70.70;;;;;;6249820;28;20435;-59
2021/04/26 13:43:54;;;;;;;6.70;6.10;;;13.70;68.40;;;;;;6249248;28;20926;-58
2021/04/26 13:46:57;;;;;;;8.10;7.30;;;13.60;68.60;;;;;;6250124;28;20477;-60
2021/04/26 13:49:59;;;;;;;7.10;6.50;;;13.50;70.00;;;;;;6249415;28;20550;-59
2021/04/26 13:53:02;;;;;;;6.90;6.30;;;13.40;68.70;;;;;;6250245;28;20466;-59
2021/04/26 13:56:06;;;;;;;6.70;6.10;;;13.20;68.70;;;;;;6249783;28;20477;-59
2021/04/26 13:59:09;;;;;;;8.30;7.50;;;13.00;67.90;;;;;;6249271;28;20474;-58
2021/04/26 14:02:11;;;;;;;7.00;6.40;;;12.90;67.90;;;;;;6257301;28;20933;-58
2021/04/26 14:05:14;;;;;;;7.10;6.60;;;12.80;69.20;;;;;;6272404;28;20478;-58
2021/04/26 14:08:17;;;;;;;6.73;6.20;;;12.70;70.10;;;;;;6249177;28;20471;-58
2021/04/26 14:11:21;;;;;;;8.00;7.23;;;12.60;69.80;;;;;;6249165;28;20487;-58
2021/04/26 14:14:23;;;;;;;8.63;6.50;;;12.60;69.40;;;;;;6260248;28;20466;-57
2021/04/26 14:17:25;;;;;;;7.23;6.47;;;12.40;70.70;;;;;;6273704;28;20782;-60
2021/04/26 14:20:28;;;;;;;8.23;7.30;;;12.50;70.30;;;;;;6274414;28;20466;-61
2021/04/26 14:23:31;;;;;;;8.40;7.70;;;12.60;71.30;;;;;;6272756;28;20636;-62
2021/04/26 14:26:34;;;;;;;9.00;8.13;;;12.60;72.00;;;;;;6254464;28;20475;-63
2021/04/26 14:29:36;;;;;;;9.93;8.63;;;12.60;71.80;;;;;;6248722;28;21276;-60
2021/04/26 14:32:38;;;;;;;7.93;7.23;;;12.50;69.50;;;;;;6257739;28;20496;-65
2021/04/26 14:35:42;;;;;;;7.63;6.93;;;12.30;70.10;;;;;;6253555;28;20474;-64
2021/04/26 14:38:45;;;;;;;8.83;8.17;;;12.40;69.60;;;;;;6248306;28;20495;-64
2021/04/26 14:41:47;;;;;;;7.37;6.67;;;12.50;69.40;;;;;;6248959;28;21045;-64
2021/04/26 14:44:50;;;;;;;9.50;8.60;;;12.60;68.70;;;;;;6248763;28;20475;-60
2021/04/26 14:47:54;;;;;;;11.30;7.80;;;12.50;69.20;;;;;;6248981;28;20471;-63
2021/04/26 14:50:59;;;;;;;9.50;7.57;;;12.60;69.80;;;;;;6248934;28;20978;-60
2021/04/26 14:54:03;;;;;;;10.53;8.10;;;12.60;69.00;;;;;;6248914;28;20500;-59
2021/04/26 14:57:05;;;;;;;10.10;9.23;;;12.60;69.20;;;;;;6248470;28;20478;-59
2021/04/26 15:00:09;;;;;;;8.37;7.67;;;12.60;69.10;;;;;;6248782;28;20493;-61
2021/04/26 15:03:12;;;;;;;10.70;9.80;;;12.70;68.90;;;;;;6248297;28;20471;-59
2021/04/26 15:06:14;;;;;;;11.97;8.80;;;12.80;67.50;;;;;;6248848;28;20826;-63
2021/04/26 15:09:18;;;;;;;9.33;8.50;;;12.60;66.80;;;;;;6248617;28;20475;-62
2021/04/26 15:12:20;;;;;;;14.60;10.70;;;12.40;66.20;;;;;;6249722;28;20991;-62
2021/04/26 15:15:23;;;;;;;16.90;8.97;;;12.30;67.10;;;;;;6273300;28;20478;-64
2021/04/26 15:18:25;;;;;;;9.53;8.63;;;12.20;66.60;;;;;;6279058;28;20470;-63
2021/04/26 15:21:28;;;;;;;11.47;9.40;;;12.20;66.10;;;;;;6278104;28;20473;-63
2021/04/26 15:24:31;;;;;;;10.33;9.23;;;12.20;66.10;;;;;;6278335;28;20481;-60
2021/04/26 15:27:33;;;;;;;8.83;7.70;;;12.20;66.10;;;;;;6260751;28;20482;-60
2021/04/26 15:30:36;;;;;;;9.00;8.20;;;12.20;64.60;;;;;;6250591;28;20470;-59
2021/04/26 15:33:39;;;;;;;9.53;8.70;;;12.30;65.20;;;;;;6250646;28;20478;-62
2021/04/26 15:36:42;;;;;;;10.93;9.83;;;12.40;65.70;;;;;;6250563;28;20563;-60
2021/04/26 15:39:46;;;;;;;11.23;8.77;;;12.30;65.00;;;;;;6249294;28;20481;-59
2021/04/26 15:42:48;;;;;;;9.17;8.17;;;12.10;65.60;;;;;;6247306;28;20477;-61
2021/04/26 15:45:50;;;;;;;12.73;8.03;;;12.00;65.90;;;;;;6252582;28;20463;-59
2021/04/26 15:48:53;;;;;;;9.10;8.30;;;12.10;66.60;;;;;;6252606;28;20808;-59
2021/04/26 15:51:57;;;;;;;9.17;8.23;;;12.20;67.20;;;;;;6252876;28;20854;-60
2021/04/26 15:55:01;;;;;;;8.60;7.60;;;12.00;67.90;;;;;;6252099;28;20486;-59
2021/04/26 15:58:04;;;;;;;8.57;7.77;;;11.90;67.60;;;;;;6252260;28;20467;-61
2021/04/26 16:01:09;;;;;;;10.77;8.13;;;12.00;68.20;;;;;;6252156;28;20553;-62
2021/04/26 16:04:12;;;;;;;9.47;7.83;;;12.10;69.20;;;;;;6251820;28;20479;-60